Time;durP1;ratioP1;P1;durP2;ratioP2;P2;SDS_P1;SDS_P2;PMS_P1;PMS_P2;Temp;Humidity;BMP_temperature;BMP_pressure;BME280_temperature;BME280_humidity;BME280_pressure;Samples;Min_cycle;Max_cycle;Signal;HPM_P1;HPM_P2
2023/10/13 00:00:37;;;;;;;20.98;12.98;;;16.00;99.90;;;;;;2048461;28;20058;-74
2023/10/13 00:01:38;;;;;;;17.58;12.48;;;16.00;99.90;;;;;;2045645;28;20031;-73
2023/10/13 00:02:39;;;;;;;22.05;13.43;;;16.00;99.90;;;;;;2048136;28;20030;-74
2023/10/13 00:03:40;;;;;;;24.25;13.20;;;16.00;99.90;;;;;;2044703;28;20513;-74
2023/10/13 00:04:42;;;;;;;19.45;12.43;;;16.00;99.90;;;;;;2050261;28;20027;-75
2023/10/13 00:05:43;;;;;;;22.35;13.20;;;16.00;99.90;;;;;;2045031;28;20422;-75
2023/10/13 00:06:45;;;;;;;22.55;12.93;;;16.00;99.90;;;;;;2046537;28;20561;-74
2023/10/13 00:07:46;;;;;;;20.13;12.80;;;16.00;99.90;;;;;;2044500;28;20489;-74
2023/10/13 00:08:47;;;;;;;17.85;12.70;;;16.00;99.90;;;;;;2041073;28;20486;-74
2023/10/13 00:09:47;;;;;;;20.33;12.38;;;16.00;99.90;;;;;;2041234;28;20028;-74
2023/10/13 00:10:48;;;;;;;19.98;11.98;;;16.00;99.90;;;;;;2046520;28;20021;-74
2023/10/13 00:11:48;;;;;;;19.83;11.80;;;16.10;99.90;;;;;;2045803;28;20035;-74
2023/10/13 00:12:52;;;;;;;20.67;12.20;;;16.10;99.90;;;;;;2039084;28;20282;-74
2023/10/13 00:13:54;;;;;;;17.60;12.45;;;16.10;99.90;;;;;;2038573;28;20019;-74
2023/10/13 00:14:54;;;;;;;18.75;12.38;;;16.10;99.90;;;;;;2046621;28;20094;-74
2023/10/13 00:15:57;;;;;;;18.35;12.35;;;16.10;99.90;;;;;;2047333;28;20023;-74
2023/10/13 00:17:03;;;;;;;17.08;12.05;;;16.10;99.90;;;;;;2054005;28;20045;-74
2023/10/13 00:18:12;;;;;;;17.92;12.40;;;16.10;99.90;;;;;;2051769;28;20117;-75
2023/10/13 00:19:13;;;;;;;17.27;12.52;;;16.10;99.90;;;;;;2048814;28;20027;-75
2023/10/13 00:20:39;;;;;;;18.40;12.00;;;16.10;99.90;;;;;;2046823;28;20016;-73
2023/10/13 00:21:42;;;;;;;18.30;12.18;;;16.10;99.90;;;;;;2044765;28;20030;-74
2023/10/13 00:22:44;;;;;;;19.73;12.35;;;16.10;99.90;;;;;;2049314;28;20399;-74
2023/10/13 00:23:54;;;;;;;18.67;12.05;;;16.10;99.90;;;;;;2041218;28;20035;-75
2023/10/13 00:24:58;;;;;;;19.45;12.75;;;16.10;99.90;;;;;;2037629;29;20494;-75
2023/10/13 00:26:02;;;;;;;16.98;11.95;;;16.10;99.90;;;;;;2036820;28;20036;-73
2023/10/13 00:27:05;;;;;;;17.60;11.98;;;16.10;99.90;;;;;;2033089;28;20039;-73
2023/10/13 00:28:08;;;;;;;18.98;12.60;;;16.10;99.90;;;;;;2041088;29;20103;-75
2023/10/13 00:29:16;;;;;;;15.23;11.85;;;16.10;99.90;;;;;;2035698;29;20059;-75
2023/10/13 00:31:17;;;;;;;19.23;12.23;;;16.10;99.90;;;;;;2035555;29;20043;-75
2023/10/13 00:32:26;;;;;;;19.67;12.27;;;16.10;99.90;;;;;;2036855;29;20055;-74
2023/10/13 00:33:27;;;;;;;19.05;12.18;;;16.10;99.90;;;;;;2034197;28;20034;-73
2023/10/13 00:34:28;;;;;;;17.75;12.45;;;16.10;99.90;;;;;;2031752;29;20052;-73
2023/10/13 00:35:42;;;;;;;21.98;12.50;;;16.10;99.90;;;;;;2040068;29;20059;-74
2023/10/13 00:36:48;;;;;;;17.80;12.30;;;16.10;99.90;;;;;;2043086;28;20498;-74
2023/10/13 00:37:53;;;;;;;19.20;12.80;;;16.10;99.90;;;;;;2049699;28;20121;-74
2023/10/13 00:38:56;;;;;;;19.33;12.55;;;16.10;99.90;;;;;;2049647;28;20569;-73
2023/10/13 00:39:58;;;;;;;16.35;11.73;;;16.10;99.90;;;;;;2040779;28;20031;-74
2023/10/13 00:41:14;;;;;;;19.08;12.32;;;16.10;99.90;;;;;;2030859;29;20340;-73
2023/10/13 00:42:19;;;;;;;16.08;11.07;;;16.10;99.90;;;;;;2038323;28;20024;-74
2023/10/13 00:44:37;;;;;;;18.05;11.77;;;16.10;99.90;;;;;;2045474;28;20127;-74
2023/10/13 00:45:40;;;;;;;18.58;12.05;;;16.10;99.90;;;;;;2033153;28;20171;-75
2023/10/13 00:46:44;;;;;;;17.77;11.65;;;16.10;99.90;;;;;;2036442;29;20036;-75
2023/10/13 00:47:56;;;;;;;18.30;11.73;;;16.10;99.90;;;;;;2036209;28;20084;-74
2023/10/13 00:48:57;;;;;;;18.17;11.57;;;16.10;99.90;;;;;;2027607;29;20148;-72
2023/10/13 00:49:58;;;;;;;18.00;12.23;;;16.10;99.90;;;;;;2026608;29;20036;-74
2023/10/13 00:51:07;;;;;;;19.67;11.95;;;16.10;99.90;;;;;;2033713;29;20099;-74
2023/10/13 00:52:10;;;;;;;18.75;12.07;;;16.10;99.90;;;;;;2030021;29;20484;-74
2023/10/13 00:53:11;;;;;;;16.52;11.65;;;16.10;99.90;;;;;;2034635;29;20079;-74
2023/10/13 00:54:13;;;;;;;15.05;11.45;;;16.10;99.90;;;;;;2032127;29;20437;-74
2023/10/13 00:55:14;;;;;;;18.55;12.10;;;16.10;99.90;;;;;;2026247;29;20024;-74
2023/10/13 00:56:19;;;;;;;17.33;12.18;;;16.10;99.90;;;;;;2034357;28;20027;-75
2023/10/13 00:57:31;;;;;;;16.27;12.32;;;16.10;99.90;;;;;;2041889;28;20053;-74
2023/10/13 00:58:38;;;;;;;17.30;11.70;;;16.10;99.90;;;;;;2042646;28;20402;-73
2023/10/13 00:59:42;;;;;;;18.83;12.40;;;16.10;99.90;;;;;;2048169;28;20031;-74
2023/10/13 01:00:47;;;;;;;19.33;11.85;;;16.10;99.90;;;;;;2037867;28;20063;-75
2023/10/13 01:01:53;;;;;;;15.93;11.52;;;16.10;99.90;;;;;;2042168;28;20616;-75
2023/10/13 01:03:05;;;;;;;16.55;12.15;;;16.10;99.90;;;;;;2046600;28;20035;-73
2023/10/13 01:04:08;;;;;;;18.17;12.63;;;16.10;99.90;;;;;;2044707;28;20396;-72
2023/10/13 01:05:09;;;;;;;19.02;12.57;;;16.10;99.90;;;;;;2035251;28;20302;-75
2023/10/13 01:06:12;;;;;;;19.73;12.43;;;16.10;99.90;;;;;;2037612;28;20028;-74
2023/10/13 01:07:13;;;;;;;16.40;11.57;;;16.10;99.90;;;;;;2048570;28;20031;-75
2023/10/13 01:08:15;;;;;;;17.45;11.55;;;16.10;99.90;;;;;;2041303;29;20072;-75
2023/10/13 01:09:18;;;;;;;18.35;11.80;;;16.10;99.90;;;;;;2037786;28;20091;-75
2023/10/13 01:10:20;;;;;;;17.48;11.05;;;16.10;99.90;;;;;;2037640;28;20031;-75
2023/10/13 01:11:23;;;;;;;18.23;11.90;;;16.10;99.90;;;;;;2038574;28;20414;-75
2023/10/13 01:12:24;;;;;;;19.00;11.35;;;16.10;99.90;;;;;;2038357;29;20629;-75
2023/10/13 01:13:26;;;;;;;17.48;11.10;;;16.10;99.90;;;;;;2037650;29;20031;-77
2023/10/13 01:14:28;;;;;;;17.08;11.45;;;16.10;99.90;;;;;;2038312;28;20082;-77
2023/10/13 01:15:30;;;;;;;16.15;11.48;;;16.10;99.90;;;;;;2045487;28;20039;-77
2023/10/13 01:16:32;;;;;;;17.90;11.48;;;16.10;99.90;;;;;;2038851;28;20024;-76
2023/10/13 01:17:33;;;;;;;19.05;11.55;;;16.10;99.90;;;;;;2037937;28;20512;-76
2023/10/13 01:18:47;;;;;;;18.25;12.35;;;16.10;99.90;;;;;;2029058;29;20036;-78
2023/10/13 01:19:49;;;;;;;16.73;11.63;;;16.10;99.90;;;;;;2028301;29;20032;-77
2023/10/13 01:20:52;;;;;;;18.90;11.77;;;16.10;99.90;;;;;;2033181;29;20036;-78
2023/10/13 01:22:03;;;;;;;18.52;11.27;;;16.10;99.90;;;;;;2034220;29;20043;-77
2023/10/13 01:23:18;;;;;;;19.80;11.68;;;16.10;99.90;;;;;;2035765;28;20127;-77
2023/10/13 01:24:18;;;;;;;16.65;11.27;;;16.10;99.90;;;;;;2035924;28;20626;-76
2023/10/13 01:25:19;;;;;;;17.98;11.68;;;16.10;99.90;;;;;;2049842;28;20058;-78
2023/10/13 01:26:26;;;;;;;18.63;11.15;;;16.10;99.90;;;;;;2050296;28;20037;-77
2023/10/13 01:27:27;;;;;;;18.02;11.18;;;16.10;99.90;;;;;;2033958;28;20067;-77
2023/10/13 01:28:27;;;;;;;17.48;11.80;;;16.10;99.90;;;;;;2042077;28;20503;-76
2023/10/13 01:29:29;;;;;;;20.15;12.10;;;16.10;99.90;;;;;;2048666;28;20027;-75
2023/10/13 01:30:29;;;;;;;16.88;11.48;;;16.10;99.90;;;;;;2042092;28;20031;-76
2023/10/13 01:31:37;;;;;;;16.42;11.85;;;16.10;99.90;;;;;;2041910;28;20491;-76
2023/10/13 01:32:40;;;;;;;16.23;10.95;;;16.10;99.90;;;;;;2029928;29;20024;-76
2023/10/13 01:33:41;;;;;;;21.42;11.43;;;16.10;99.90;;;;;;2032659;29;20495;-77
2023/10/13 01:34:45;;;;;;;20.55;11.48;;;16.10;99.90;;;;;;2031377;29;20047;-76
2023/10/13 01:35:49;;;;;;;18.80;11.32;;;16.10;99.90;;;;;;2041803;28;20027;-77
2023/10/13 01:36:55;;;;;;;17.45;11.23;;;16.10;99.90;;;;;;2039207;28;20083;-77
2023/10/13 01:37:56;;;;;;;20.13;11.80;;;16.10;99.90;;;;;;2037753;28;20192;-77
2023/10/13 01:39:01;;;;;;;19.23;11.20;;;16.10;99.90;;;;;;2041235;28;20027;-76
2023/10/13 01:40:02;;;;;;;16.05;10.95;;;16.10;99.90;;;;;;2030207;28;20380;-75
2023/10/13 01:41:05;;;;;;;16.58;11.23;;;16.10;99.90;;;;;;2029923;29;20169;-76
2023/10/13 01:42:06;;;;;;;19.92;11.48;;;16.10;99.90;;;;;;2030888;29;20483;-76
2023/10/13 01:43:06;;;;;;;17.17;11.65;;;16.10;99.90;;;;;;2029895;29;20024;-76
2023/10/13 01:44:08;;;;;;;18.55;11.07;;;16.10;99.90;;;;;;2041820;28;20027;-76
2023/10/13 01:45:09;;;;;;;17.55;11.00;;;16.10;99.90;;;;;;2050385;28;20022;-76
2023/10/13 01:46:13;;;;;;;18.45;10.80;;;16.10;99.90;;;;;;2050232;28;20027;-76
2023/10/13 01:47:15;;;;;;;17.13;11.20;;;16.10;99.90;;;;;;2029650;29;20101;-76
2023/10/13 01:48:18;;;;;;;14.95;10.90;;;16.10;99.90;;;;;;2029997;29;20012;-76
2023/10/13 01:49:18;;;;;;;18.85;11.18;;;16.10;99.90;;;;;;2031509;29;20159;-76
2023/10/13 01:50:27;;;;;;;18.77;11.73;;;16.10;99.90;;;;;;2033904;29;20592;-76
2023/10/13 01:51:28;;;;;;;17.63;11.55;;;16.10;99.90;;;;;;2034870;29;20039;-76
2023/10/13 01:52:29;;;;;;;14.57;10.85;;;16.10;99.90;;;;;;2033736;29;20031;-76
2023/10/13 01:53:30;;;;;;;15.65;10.93;;;16.10;99.90;;;;;;2029864;29;20028;-77
2023/10/13 01:54:32;;;;;;;18.75;10.43;;;16.10;99.90;;;;;;2030304;28;20459;-76
2023/10/13 01:55:42;;;;;;;15.32;10.30;;;16.10;99.90;;;;;;2045581;28;20035;-77
2023/10/13 01:56:43;;;;;;;15.95;11.07;;;16.10;99.90;;;;;;2053556;28;20161;-77
2023/10/13 01:57:47;;;;;;;15.25;11.07;;;16.10;99.90;;;;;;2043163;28;20035;-77
2023/10/13 01:58:48;;;;;;;15.38;10.38;;;16.10;99.90;;;;;;2037540;29;20587;-77
2023/10/13 01:59:49;;;;;;;19.23;10.32;;;16.10;99.90;;;;;;2049216;28;20038;-77
2023/10/13 02:00:49;;;;;;;19.05;10.73;;;16.20;99.90;;;;;;2043480;28;20035;-77
2023/10/13 02:01:51;;;;;;;16.60;10.57;;;16.20;99.90;;;;;;2035549;29;20380;-76
2023/10/13 02:02:52;;;;;;;15.93;10.40;;;16.20;99.90;;;;;;2035252;29;20031;-77
2023/10/13 02:04:01;;;;;;;17.98;10.25;;;16.20;99.90;;;;;;2035301;29;20484;-77
2023/10/13 02:05:02;;;;;;;17.08;10.60;;;16.10;99.90;;;;;;2037126;28;20538;-77
2023/10/13 02:06:06;;;;;;;15.15;10.32;;;16.10;99.90;;;;;;2039164;28;20046;-77
2023/10/13 02:07:09;;;;;;;16.83;10.40;;;16.10;99.90;;;;;;2051619;28;20604;-77
2023/10/13 02:08:17;;;;;;;16.88;10.18;;;16.10;99.90;;;;;;2035231;29;20196;-77
2023/10/13 02:09:27;;;;;;;15.95;10.55;;;16.10;99.90;;;;;;2031260;29;20028;-77
2023/10/13 02:10:30;;;;;;;18.17;11.05;;;16.10;99.90;;;;;;2050202;28;20046;-77
2023/10/13 02:11:31;;;;;;;16.30;10.70;;;16.10;99.90;;;;;;2035341;28;20032;-77
2023/10/13 02:12:44;;;;;;;18.30;10.30;;;16.10;99.90;;;;;;2042997;28;20027;-77
2023/10/13 02:13:50;;;;;;;18.65;11.40;;;16.10;99.90;;;;;;2043081;28;20031;-77
2023/10/13 02:14:51;;;;;;;14.85;9.93;;;16.00;99.90;;;;;;2043891;28;20952;-77
2023/10/13 02:15:56;;;;;;;15.82;10.50;;;16.00;99.90;;;;;;2037635;28;20067;-77
2023/10/13 02:17:12;;;;;;;15.68;10.40;;;16.00;99.90;;;;;;2046217;28;20565;-77
2023/10/13 02:18:26;;;;;;;15.93;10.65;;;16.00;99.90;;;;;;2048359;28;20034;-77
2023/10/13 02:19:27;;;;;;;14.35;10.35;;;16.00;99.90;;;;;;2039903;28;20447;-77
2023/10/13 02:20:30;;;;;;;17.92;10.85;;;16.00;99.90;;;;;;2039171;28;20028;-77
2023/10/13 02:21:44;;;;;;;16.02;9.90;;;16.00;99.90;;;;;;2038750;29;20513;-76
2023/10/13 02:22:51;;;;;;;16.60;10.40;;;16.00;99.90;;;;;;2044529;28;20035;-77
2023/10/13 02:24:03;;;;;;;16.30;10.07;;;16.00;99.90;;;;;;2043837;28;20123;-77
2023/10/13 02:25:06;;;;;;;16.63;10.15;;;16.00;99.90;;;;;;2037038;28;20056;-77
2023/10/13 02:26:15;;;;;;;17.75;10.93;;;16.00;99.90;;;;;;2042150;28;20035;-77
2023/10/13 02:27:16;;;;;;;18.48;10.48;;;16.00;99.90;;;;;;2043721;28;20046;-77
2023/10/13 02:28:21;;;;;;;15.52;10.10;;;16.00;99.90;;;;;;2045189;28;20031;-77
2023/10/13 02:29:22;;;;;;;15.70;10.40;;;16.00;99.90;;;;;;2044996;28;20918;-77
2023/10/13 02:30:23;;;;;;;15.65;10.27;;;16.10;99.90;;;;;;2043559;28;20448;-77
2023/10/13 02:31:27;;;;;;;15.35;10.30;;;16.10;99.90;;;;;;2039077;28;20095;-77
2023/10/13 02:32:30;;;;;;;20.08;10.38;;;16.10;99.90;;;;;;2042863;28;20050;-77
2023/10/13 02:33:31;;;;;;;15.65;10.30;;;16.10;99.90;;;;;;2042771;28;20058;-77
2023/10/13 02:34:32;;;;;;;16.55;10.32;;;16.10;99.90;;;;;;2031227;29;21732;-77
2023/10/13 02:35:34;;;;;;;15.32;9.98;;;16.10;99.90;;;;;;2038893;28;20031;-76
2023/10/13 02:36:36;;;;;;;13.00;9.40;;;16.10;99.90;;;;;;2035542;29;20043;-76
2023/10/13 02:37:36;;;;;;;14.52;9.63;;;16.10;99.90;;;;;;2041313;28;20038;-77
2023/10/13 02:39:41;;;;;;;14.05;9.65;;;16.10;99.90;;;;;;2047594;28;20035;-77
2023/10/13 02:40:42;;;;;;;19.45;10.13;;;16.10;99.90;;;;;;2051664;28;20247;-77
2023/10/13 02:41:47;;;;;;;16.58;9.82;;;16.10;99.90;;;;;;2042719;28;20155;-77
2023/10/13 02:42:48;;;;;;;14.15;9.35;;;16.10;99.90;;;;;;2043548;28;20031;-78
2023/10/13 02:43:49;;;;;;;12.98;9.40;;;16.10;99.90;;;;;;2037086;28;20043;-79
2023/10/13 02:44:50;;;;;;;15.20;9.63;;;16.20;99.90;;;;;;2044724;28;20027;-77
2023/10/13 02:45:58;;;;;;;14.48;9.50;;;16.20;99.90;;;;;;2051626;28;20026;-78
2023/10/13 02:46:58;;;;;;;15.73;9.57;;;16.20;99.90;;;;;;2046892;28;20035;-77
2023/10/13 02:48:17;;;;;;;13.90;9.07;;;16.20;99.90;;;;;;2050590;28;20252;-77
2023/10/13 02:49:19;;;;;;;14.65;9.52;;;16.20;99.90;;;;;;2027552;29;20032;-77
2023/10/13 02:50:24;;;;;;;16.70;9.63;;;16.20;99.90;;;;;;2030963;29;20548;-77
2023/10/13 02:51:59;;;;;;;14.20;9.50;;;16.20;99.90;;;;;;2042412;28;20035;-77
2023/10/13 02:52:52;;;;;;;12.93;9.18;;;16.20;99.90;;;;;;2043220;28;20114;-77
2023/10/13 02:53:53;;;;;;;15.82;9.10;;;16.20;99.90;;;;;;2047889;28;20512;-78
2023/10/13 02:54:54;;;;;;;15.52;9.18;;;16.20;99.90;;;;;;2048552;28;20027;-78
2023/10/13 02:55:56;;;;;;;13.13;8.95;;;16.20;99.90;;;;;;2050130;28;20026;-78
2023/10/13 02:56:59;;;;;;;12.95;9.20;;;16.30;99.90;;;;;;2039655;28;20036;-78
2023/10/13 02:58:00;;;;;;;14.80;9.20;;;16.30;99.90;;;;;;2038579;28;20482;-77
2023/10/13 02:59:04;;;;;;;13.40;8.98;;;16.30;99.90;;;;;;2051295;28;20019;-78
2023/10/13 03:00:12;;;;;;;12.60;8.90;;;16.30;99.90;;;;;;2051376;28;20029;-79
2023/10/13 03:01:18;;;;;;;14.00;9.25;;;16.30;99.90;;;;;;2041260;28;20117;-77
2023/10/13 03:02:29;;;;;;;13.52;9.25;;;16.30;99.90;;;;;;2037848;28;20094;-77
2023/10/13 03:03:30;;;;;;;13.75;9.10;;;16.30;99.90;;;;;;2051435;28;20398;-76
2023/10/13 03:04:32;;;;;;;14.23;9.55;;;16.30;99.90;;;;;;2035975;28;20024;-77
2023/10/13 03:05:39;;;;;;;13.65;9.50;;;16.30;99.90;;;;;;2031875;29;20058;-77
2023/10/13 03:06:42;;;;;;;15.45;9.85;;;16.30;99.90;;;;;;2032794;28;20230;-77
2023/10/13 03:07:43;;;;;;;14.38;9.55;;;16.30;99.90;;;;;;2040477;28;20032;-77
2023/10/13 03:08:43;;;;;;;16.08;9.82;;;16.30;99.90;;;;;;2037281;28;20062;-77
2023/10/13 03:09:57;;;;;;;14.32;9.40;;;16.30;99.90;;;;;;2042747;28;20526;-76
2023/10/13 03:10:58;;;;;;;14.10;9.30;;;16.30;99.90;;;;;;2041531;28;20055;-77
2023/10/13 03:11:58;;;;;;;15.55;9.77;;;16.30;99.90;;;;;;2050383;28;20041;-77
2023/10/13 03:12:59;;;;;;;15.80;9.32;;;16.20;99.90;;;;;;2051064;28;20023;-76
2023/10/13 03:14:06;;;;;;;13.15;9.43;;;16.30;99.90;;;;;;2051253;28;20082;-76
2023/10/13 03:16:15;;;;;;;16.38;9.60;;;16.20;99.90;;;;;;2050576;28;20023;-77
2023/10/13 03:17:22;;;;;;;16.15;9.63;;;16.20;99.90;;;;;;2048892;28;20034;-76
2023/10/13 03:18:22;;;;;;;15.20;9.93;;;16.20;99.90;;;;;;2038739;28;20027;-78
2023/10/13 03:19:32;;;;;;;29.08;22.10;;;16.20;99.90;;;;;;2042906;28;20042;-76
2023/10/13 03:20:33;;;;;;;17.88;11.55;;;16.20;99.90;;;;;;2031271;29;20079;-76
2023/10/13 03:21:36;;;;;;;16.23;10.40;;;16.30;99.90;;;;;;2030928;29;20039;-77
2023/10/13 03:22:37;;;;;;;15.65;10.00;;;16.20;99.90;;;;;;2043437;28;20039;-76
2023/10/13 03:23:46;;;;;;;13.15;9.50;;;16.20;99.90;;;;;;2054389;28;20263;-77
2023/10/13 03:24:47;;;;;;;15.52;10.13;;;16.20;99.90;;;;;;2051128;28;20038;-76
2023/10/13 03:25:53;;;;;;;16.50;10.25;;;16.20;99.90;;;;;;2038660;28;20031;-77
2023/10/13 03:26:55;;;;;;;14.63;9.60;;;16.20;99.90;;;;;;2037381;28;20031;-77
2023/10/13 03:28:57;;;;;;;16.48;9.43;;;16.30;99.90;;;;;;2051491;28;20023;-76
2023/10/13 03:30:00;;;;;;;17.00;9.68;;;16.20;99.90;;;;;;2042816;28;20618;-76
2023/10/13 03:31:01;;;;;;;16.23;9.80;;;16.20;99.90;;;;;;2039689;28;20087;-78
2023/10/13 03:32:07;;;;;;;14.48;9.43;;;16.30;99.90;;;;;;2051058;28;20557;-77
2023/10/13 03:33:13;;;;;;;15.52;9.93;;;16.20;99.90;;;;;;2041990;28;20061;-76
2023/10/13 03:34:14;;;;;;;14.13;8.25;;;16.30;99.90;;;;;;2049615;28;20055;-76
2023/10/13 03:35:24;;;;;;;13.77;8.13;;;16.30;99.90;;;;;;2046175;28;20042;-78
2023/10/13 03:37:45;;;;;;;10.85;7.90;;;16.30;99.90;;;;;;2045907;28;20129;-73
2023/10/13 03:38:50;;;;;;;15.55;8.68;;;16.30;99.90;;;;;;2040585;28;20415;-73
2023/10/13 03:39:55;;;;;;;11.45;8.15;;;16.30;99.90;;;;;;2035550;29;20621;-76
2023/10/13 03:40:56;;;;;;;15.38;8.43;;;16.30;99.90;;;;;;2042574;28;20039;-75
2023/10/13 03:41:58;;;;;;;14.32;8.65;;;16.30;99.90;;;;;;2042626;28;20039;-76
2023/10/13 03:44:13;;;;;;;11.77;8.23;;;16.30;99.90;;;;;;2038837;28;20031;-76
2023/10/13 03:45:13;;;;;;;12.57;7.43;;;16.30;99.90;;;;;;2051163;28;20035;-75
2023/10/13 03:46:17;;;;;;;10.57;7.68;;;16.30;99.90;;;;;;2051276;28;20026;-76
2023/10/13 03:47:18;;;;;;;10.10;7.68;;;16.30;99.90;;;;;;2050827;28;20344;-76
2023/10/13 03:49:29;;;;;;;13.88;7.95;;;16.40;99.90;;;;;;2042491;28;20118;-76
2023/10/13 03:50:31;;;;;;;12.23;7.97;;;16.40;99.90;;;;;;2040864;28;20039;-77
2023/10/13 03:51:33;;;;;;;12.85;8.43;;;16.40;99.90;;;;;;2049605;28;20033;-75
2023/10/13 03:52:36;;;;;;;17.20;8.15;;;16.40;99.90;;;;;;2046273;28;20506;-75
2023/10/13 03:53:53;;;;;;;12.77;8.23;;;16.40;99.90;;;;;;2041348;28;20502;-75
2023/10/13 03:54:53;;;;;;;15.63;8.45;;;16.30;99.90;;;;;;2047140;28;20196;-76
2023/10/13 03:56:07;;;;;;;12.57;8.60;;;16.30;99.90;;;;;;2051150;28;20029;-76
2023/10/13 03:57:11;;;;;;;14.68;9.13;;;16.40;99.90;;;;;;2050833;28;20027;-76
2023/10/13 03:58:12;;;;;;;13.32;9.00;;;16.40;99.90;;;;;;2049519;28;20359;-75
2023/10/13 04:00:23;;;;;;;13.68;8.32;;;16.30;99.90;;;;;;2048189;28;20486;-78
2023/10/13 04:01:31;;;;;;;13.68;8.77;;;16.30;99.90;;;;;;2050805;28;20134;-76
2023/10/13 04:02:31;;;;;;;14.10;8.27;;;16.30;99.90;;;;;;2051220;28;20026;-76
2023/10/13 04:03:36;;;;;;;14.30;8.55;;;16.30;99.90;;;;;;2050924;28;20102;-76
2023/10/13 04:04:48;;;;;;;13.75;8.80;;;16.30;99.90;;;;;;2042216;28;20035;-72
2023/10/13 04:06:02;;;;;;;15.52;9.23;;;16.30;99.90;;;;;;2035203;28;20035;-76
2023/10/13 04:14:23;;;;;;;14.23;8.38;;;16.30;99.90;;;;;;2045136;28;20043;-76
2023/10/13 04:15:27;;;;;;;12.25;8.27;;;16.30;99.90;;;;;;2049873;28;20318;-75
2023/10/13 04:17:29;;;;;;;12.93;8.75;;;16.30;99.90;;;;;;2050478;28;20031;-75
2023/10/13 04:21:36;;;;;;;12.10;8.02;;;16.30;99.90;;;;;;2046486;28;20023;-75
2023/10/13 04:24:08;;;;;;;14.23;8.73;;;16.30;99.90;;;;;;2047798;28;20042;-77
2023/10/13 04:25:34;;;;;;;14.48;8.13;;;16.40;99.90;;;;;;2042518;28;20125;-76
2023/10/13 04:27:27;;;;;;;11.25;7.95;;;16.40;99.90;;;;;;2050563;28;20047;-77
2023/10/13 04:28:14;;;;;;;11.60;8.15;;;16.40;99.90;;;;;;2049274;28;20055;-78
2023/10/13 04:29:27;;;;;;;12.70;7.90;;;16.30;99.90;;;;;;2035382;29;20454;-78
2023/10/13 04:30:38;;;;;;;11.90;7.63;;;16.30;99.90;;;;;;2044236;28;20062;-77
2023/10/13 04:31:46;;;;;;;10.93;7.70;;;16.30;99.90;;;;;;2043120;28;20089;-77
2023/10/13 04:33:15;;;;;;;12.45;8.00;;;16.30;99.90;;;;;;2043888;28;20035;-77
2023/10/13 04:34:15;;;;;;;12.05;7.68;;;16.30;99.90;;;;;;2050383;28;20097;-78
2023/10/13 04:36:22;;;;;;;11.45;7.88;;;16.30;99.90;;;;;;2046617;28;20047;-77
2023/10/13 04:37:29;;;;;;;10.00;7.78;;;16.30;99.90;;;;;;2039094;28;20031;-77
2023/10/13 04:38:34;;;;;;;10.68;7.65;;;16.30;99.90;;;;;;2037992;28;20044;-75
2023/10/13 04:39:38;;;;;;;11.48;8.00;;;16.30;99.90;;;;;;2049128;28;20514;-75
2023/10/13 04:40:58;;;;;;;12.23;7.63;;;16.30;99.90;;;;;;2042916;28;20031;-74
2023/10/13 04:42:10;;;;;;;13.50;7.87;;;16.30;99.90;;;;;;2045413;28;20050;-76
2023/10/13 04:43:33;;;;;;;15.63;8.40;;;16.30;99.90;;;;;;2045224;28;20274;-76
2023/10/13 04:44:48;;;;;;;12.63;8.05;;;16.30;99.90;;;;;;2037756;28;20059;-76
2023/10/13 04:45:54;;;;;;;12.93;8.18;;;16.30;99.90;;;;;;2042936;28;20035;-76
2023/10/13 04:49:35;;;;;;;13.02;7.80;;;16.20;99.90;;;;;;2038971;29;20083;-76
2023/10/13 04:50:44;;;;;;;13.18;7.55;;;16.30;99.90;;;;;;2043642;28;20039;-76
2023/10/13 04:51:58;;;;;;;10.98;7.75;;;16.20;99.90;;;;;;2038906;28;20146;-76
2023/10/13 04:53:02;;;;;;;12.50;8.27;;;16.20;99.90;;;;;;2047885;28;20407;-76
2023/10/13 04:54:12;;;;;;;13.75;8.23;;;16.20;99.90;;;;;;2050628;28;20090;-76
2023/10/13 04:55:17;;;;;;;12.73;8.82;;;16.20;99.90;;;;;;2042784;28;20079;-77
2023/10/13 04:57:49;;;;;;;10.75;8.13;;;16.20;99.90;;;;;;2043699;28;20027;-76
2023/10/13 05:44:33;;;;;;;10.07;7.28;;;16.20;99.90;;;;;;2043203;28;20020;-77
2023/10/13 05:44:33;;;;;;;13.10;7.57;;;16.20;99.90;;;;;;2036646;29;20039;-74
2023/10/13 05:45:07;;;;;;;11.25;7.35;;;16.20;99.90;;;;;;2046105;28;20031;-87
2023/10/13 05:46:35;;;;;;;13.88;7.93;;;16.20;99.90;;;;;;2047391;28;20041;-85
2023/10/13 05:51:43;;;;;;;12.00;7.40;;;16.20;99.90;;;;;;2045541;28;20039;-75
2023/10/13 06:28:41;;;;;;;14.40;6.93;;;16.90;99.90;;;;;;2043117;28;20471;-81
2023/10/13 06:29:45;;;;;;;12.85;7.18;;;16.90;99.90;;;;;;2021510;29;20040;-81
2023/10/13 06:31:01;;;;;;;13.25;7.57;;;16.90;99.90;;;;;;2023173;29;20039;-80
2023/10/13 06:32:01;;;;;;;14.75;7.43;;;16.90;99.90;;;;;;2046560;28;20557;-80
2023/10/13 06:33:04;;;;;;;12.63;7.53;;;16.90;99.90;;;;;;2053117;28;20023;-80
2023/10/13 06:34:05;;;;;;;14.35;7.55;;;16.90;99.90;;;;;;2039099;28;20039;-79
2023/10/13 06:35:18;;;;;;;12.18;7.65;;;16.90;99.90;;;;;;2043278;29;20286;-79
2023/10/13 06:36:19;;;;;;;12.50;7.68;;;16.90;99.90;;;;;;2051477;28;20560;-80
2023/10/13 06:37:23;;;;;;;14.88;7.35;;;16.90;99.90;;;;;;2043111;28;20030;-81
2023/10/13 06:38:24;;;;;;;11.32;7.40;;;16.90;99.90;;;;;;2035173;29;20066;-83
2023/10/13 06:39:36;;;;;;;10.35;7.13;;;16.90;99.90;;;;;;2043094;28;20039;-81
2023/10/13 06:40:39;;;;;;;16.10;7.70;;;16.90;99.90;;;;;;2042757;28;20522;-81
2023/10/13 06:41:40;;;;;;;14.20;7.57;;;16.90;99.90;;;;;;2035085;29;20031;-81
2023/10/13 06:42:42;;;;;;;12.75;7.40;;;17.00;99.90;;;;;;2034507;29;20527;-81
2023/10/13 06:43:43;;;;;;;14.25;7.88;;;17.00;99.90;;;;;;2040146;28;20248;-80
2023/10/13 06:44:46;;;;;;;15.27;7.95;;;17.00;99.90;;;;;;2038265;29;20543;-82
2023/10/13 06:46:00;;;;;;;13.95;7.72;;;17.00;99.90;;;;;;2038945;28;20606;-81
2023/10/13 06:47:03;;;;;;;12.02;7.53;;;17.00;99.90;;;;;;2041832;28;20029;-80
2023/10/13 06:48:05;;;;;;;12.98;7.63;;;17.00;99.90;;;;;;2050975;28;20098;-81
2023/10/13 06:49:08;;;;;;;10.05;6.88;;;17.10;99.90;;;;;;2051170;28;20030;-81
2023/10/13 06:50:15;;;;;;;14.98;8.02;;;17.10;99.90;;;;;;2043079;28;20122;-81
2023/10/13 06:51:21;;;;;;;11.77;7.25;;;17.20;99.90;;;;;;2034363;29;20527;-80
2023/10/13 06:52:22;;;;;;;15.52;7.68;;;17.20;99.90;;;;;;2036095;28;20567;-80
2023/10/13 06:53:24;;;;;;;14.40;7.30;;;17.20;99.90;;;;;;2050721;28;20101;-81
2023/10/13 06:54:25;;;;;;;10.20;7.10;;;17.20;99.90;;;;;;2051769;28;20030;-80
2023/10/13 06:55:34;;;;;;;13.30;7.43;;;17.20;99.90;;;;;;2042593;28;20407;-81
2023/10/13 06:56:39;;;;;;;12.98;7.43;;;17.20;99.90;;;;;;2036197;29;20026;-80
2023/10/13 06:57:42;;;;;;;14.27;7.13;;;17.30;99.90;;;;;;2043722;28;20050;-79
2023/10/13 06:58:46;;;;;;;12.82;7.28;;;17.20;99.90;;;;;;2051613;28;20022;-84
2023/10/13 06:59:48;;;;;;;13.73;7.30;;;17.20;99.90;;;;;;2040122;28;20530;-83
2023/10/13 07:00:57;;;;;;;12.25;7.03;;;17.30;99.90;;;;;;2043494;28;20478;-83
2023/10/13 07:02:04;;;;;;;12.95;7.00;;;17.30;99.90;;;;;;2041870;28;20035;-83
2023/10/13 07:03:17;;;;;;;16.13;7.05;;;17.40;99.90;;;;;;2043025;28;20035;-83
2023/10/13 07:04:18;;;;;;;14.68;7.10;;;17.30;99.90;;;;;;2044915;28;20191;-82
2023/10/13 07:05:19;;;;;;;12.07;6.97;;;17.40;99.90;;;;;;2049554;28;20058;-82
2023/10/13 07:06:22;;;;;;;14.93;7.22;;;17.40;99.90;;;;;;2057837;28;20035;-83
2023/10/13 07:07:23;;;;;;;12.10;7.05;;;17.40;99.90;;;;;;2051142;28;20050;-83
2023/10/13 07:08:25;;;;;;;14.25;6.88;;;17.50;99.90;;;;;;2039907;28;20038;-82
2023/10/13 07:10:48;;;;;;;11.60;7.28;;;17.50;99.90;;;;;;2050249;28;20027;-83
2023/10/13 07:11:52;;;;;;;18.50;8.07;;;17.50;99.90;;;;;;2052627;28;20093;-84
2023/10/13 07:12:55;;;;;;;15.00;7.30;;;17.60;99.90;;;;;;2035733;28;20048;-84
2023/10/13 07:13:58;;;;;;;11.50;6.90;;;17.60;99.90;;;;;;2039362;28;20027;-83
2023/10/13 07:15:19;;;;;;;14.18;7.43;;;17.60;99.90;;;;;;2038128;28;20028;-82
2023/10/13 07:16:19;;;;;;;13.18;7.03;;;17.60;99.90;;;;;;2045642;28;20113;-83
2023/10/13 07:17:26;;;;;;;13.07;7.65;;;17.60;99.90;;;;;;2034825;29;20091;-83
2023/10/13 07:18:35;;;;;;;13.30;7.60;;;17.60;99.90;;;;;;2029141;29;20499;-83
2023/10/13 07:19:45;;;;;;;16.27;7.95;;;17.70;99.90;;;;;;2036088;29;20559;-84
2023/10/13 07:20:45;;;;;;;14.77;8.30;;;17.70;99.90;;;;;;2040184;29;20027;-85
2023/10/13 07:21:46;;;;;;;13.32;8.38;;;17.70;99.90;;;;;;2040141;28;20062;-85
2023/10/13 07:23:11;;;;;;;19.42;10.02;;;17.70;99.90;;;;;;2039875;28;20038;-84
2023/10/13 07:24:15;;;;;;;17.02;8.95;;;17.80;99.90;;;;;;2039355;28;20067;-84
2023/10/13 07:25:23;;;;;;;17.15;9.10;;;17.80;99.90;;;;;;2042321;29;20407;-83